Time;durP1;ratioP1;P1;durP2;ratioP2;P2;SDS_P1;SDS_P2;PMS_P1;PMS_P2;Temp;Humidity;BMP_temperature;BMP_pressure;BME280_temperature;BME280_humidity;BME280_pressure;Samples;Min_cycle;Max_cycle;Signal;HPM_P1;HPM_P2
2023/04/10 00:00:05;;;;;;;;;;;;;;;24.33;43.04;97144.38;621521;227;64905;-63
2023/04/10 00:02:33;;;;;;;;;;;;;;;24.33;42.75;97145.17;621587;228;67072;-62
2023/04/10 00:05:01;;;;;;;;;;;;;;;24.32;40.93;97146.27;621665;228;64990;-62
2023/04/10 00:07:28;;;;;;;;;;;;;;;24.31;42.37;97147.37;621595;228;66922;-63
2023/04/10 00:09:56;;;;;;;;;;;;;;;24.31;42.85;97149.27;622068;228;64931;-63
2023/04/10 00:12:24;;;;;;;;;;;;;;;24.31;42.30;97141.20;621085;227;65125;-62
2023/04/10 00:14:51;;;;;;;;;;;;;;;24.30;42.26;97140.38;621621;228;65315;-62
2023/04/10 00:17:19;;;;;;;;;;;;;;;24.29;42.83;97130.73;621578;228;66875;-63
2023/04/10 00:19:46;;;;;;;;;;;;;;;24.28;41.95;97134.52;622077;228;65024;-62
2023/04/10 00:22:14;;;;;;;;;;;;;;;24.28;41.65;97131.02;622178;227;64827;-62
2023/04/10 00:24:41;;;;;;;;;;;;;;;24.27;42.27;97124.84;621604;228;67076;-62
2023/04/10 00:27:09;;;;;;;;;;;;;;;24.26;41.86;97128.63;621606;228;62928;-63
2023/04/10 00:29:36;;;;;;;;;;;;;;;24.26;42.03;97111.73;621609;228;64939;-62
2023/04/10 00:32:04;;;;;;;;;;;;;;;24.25;41.56;97121.65;621646;228;66671;-62
2023/04/10 00:34:31;;;;;;;;;;;;;;;24.26;40.30;97117.09;621185;227;65000;-62
2023/04/10 00:36:59;;;;;;;;;;;;;;;24.24;42.92;97114.69;621595;228;64603;-62
2023/04/10 00:39:27;;;;;;;;;;;;;;;24.23;42.44;97112.31;621609;228;67454;-63
2023/04/10 00:41:54;;;;;;;;;;;;;;;24.24;41.87;97111.22;622058;228;64947;-62
2023/04/10 00:44:22;;;;;;;;;;;;;;;24.21;41.97;97107.22;621466;227;64906;-62
2023/04/10 00:46:50;;;;;;;;;;;;;;;24.20;42.45;97107.49;617653;228;67299;-62
2023/04/10 00:49:18;;;;;;;;;;;;;;;24.20;41.15;97104.81;621533;228;62653;-62
2023/04/10 00:51:45;;;;;;;;;;;;;;;24.19;40.44;97100.54;621745;228;64989;-62
2023/04/10 00:54:13;;;;;;;;;;;;;;;24.20;43.08;97102.13;621707;227;66669;-63
2023/04/10 00:56:41;;;;;;;;;;;;;;;24.18;39.38;97096.27;621643;228;64872;-66
2023/04/10 00:59:11;;;;;;;;;;;;;;;24.17;41.13;97103.50;621584;228;67086;-66
2023/04/10 01:01:38;;;;;;;;;;;;;;;24.18;42.75;97104.32;621596;228;68189;-67
2023/04/10 01:04:06;;;;;;;;;;;;;;;24.17;41.58;97094.66;621560;228;65110;-67
2023/04/10 01:06:42;;;;;;;;;;;;;;;24.14;41.60;97088.80;621494;228;65136;-63
2023/04/10 01:09:11;;;;;;;;;;;;;;;24.14;41.83;97086.11;621222;227;67395;-63
2023/04/10 01:11:40;;;;;;;;;;;;;;;24.14;41.28;97085.28;621954;228;63847;-64
2023/04/10 01:14:21;;;;;;;;;;;;;;;24.13;42.34;97092.55;621402;227;64867;-63
2023/04/10 01:16:53;;;;;;;;;;;;;;;24.12;42.93;97090.17;621612;228;67495;-64
2023/04/10 01:19:28;;;;;;;;;;;;;;;24.12;41.32;97084.80;621886;228;65023;-63
2023/04/10 01:21:56;;;;;;;;;;;;;;;24.11;41.10;97085.87;620519;228;66874;-63
2023/04/10 01:24:28;;;;;;;;;;;;;;;24.10;42.18;97081.59;622098;227;66854;-63
2023/04/10 01:26:57;;;;;;;;;;;;;;;24.09;40.99;97080.80;621062;228;65082;-63
2023/04/10 01:29:28;;;;;;;;;;;;;;;24.09;41.15;97079.98;621552;228;68039;-63
2023/04/10 01:31:58;;;;;;;;;;;;;;;24.08;42.27;97079.19;622242;228;45446;-63
2023/04/10 01:34:34;;;;;;;;;;;;;;;24.08;43.42;97079.19;622157;228;62562;-63
2023/04/10 01:37:03;;;;;;;;;;;;;;;24.08;42.17;97089.13;621944;227;67077;-63
2023/04/10 01:39:32;;;;;;;;;;;;;;;24.06;42.13;97085.93;621749;228;64983;-64
2023/04/10 01:42:01;;;;;;;;;;;;;;;24.05;42.76;97087.03;622322;228;65644;-63
2023/04/10 01:44:31;;;;;;;;;;;;;;;24.05;41.63;97087.03;616445;227;47789;-63
2023/04/10 01:47:00;;;;;;;;;;;;;;;24.04;41.66;97083.55;622247;228;66890;-64
2023/04/10 01:49:28;;;;;;;;;;;;;;;24.03;43.71;97092.67;621926;227;65168;-63
2023/04/10 01:51:58;;;;;;;;;;;;;;;24.03;42.01;97089.99;621964;228;44336;-64
2023/04/10 01:54:31;;;;;;;;;;;;;;;24.02;40.25;97090.30;615852;228;68209;-64
2023/04/10 01:57:02;;;;;;;;;;;;;;;24.02;41.38;97090.30;620912;228;63732;-63
2023/04/10 01:59:31;;;;;;;;;;;;;;;24.01;43.57;97097.56;620968;228;45181;-64
2023/04/10 02:02:00;;;;;;;;;;;;;;;24.01;42.00;97086.81;621065;228;66781;-63
2023/04/10 02:04:27;;;;;;;;;;;;;;;23.99;41.03;97086.30;623152;227;62959;-64
2023/04/10 02:06:56;;;;;;;;;;;;;;;23.99;42.01;97086.30;621839;228;64698;-63
2023/04/10 02:09:26;;;;;;;;;;;;;;;23.98;42.33;97090.08;621818;227;64725;-63
2023/04/10 02:11:58;;;;;;;;;;;;;;;23.99;41.46;97080.93;620862;228;65987;-63
2023/04/10 02:14:28;;;;;;;;;;;;;;;23.97;41.85;97077.73;621519;228;45616;-63
2023/04/10 02:16:56;;;;;;;;;;;;;;;23.98;41.88;97083.89;621610;228;67347;-63
2023/04/10 02:19:24;;;;;;;;;;;;;;;23.96;41.37;97081.52;621989;228;62805;-63
2023/04/10 02:21:52;;;;;;;;;;;;;;;23.95;42.14;97079.89;622006;228;67276;-63
2023/04/10 02:24:20;;;;;;;;;;;;;;;23.94;41.19;97078.31;621655;228;64794;-63
2023/04/10 02:26:49;;;;;;;;;;;;;;;23.94;40.70;97089.05;621381;228;65044;-63
2023/04/10 02:29:18;;;;;;;;;;;;;;;23.94;42.34;97089.05;621241;227;67196;-63
2023/04/10 02:31:45;;;;;;;;;;;;;;;23.93;42.13;97082.09;622636;226;67020;-63
2023/04/10 02:34:14;;;;;;;;;;;;;;;23.93;42.26;97082.09;627707;224;65744;-63
2023/04/10 02:36:41;;;;;;;;;;;;;;;23.92;41.02;97080.48;625808;226;67771;-63
2023/04/10 02:39:08;;;;;;;;;;;;;;;;;;626283;226;68151;-63
2023/04/10 02:41:38;;;;;;;;;;;;;;;23.89;41.65;97076.48;626728;225;43455;-67
2023/04/10 02:44:06;;;;;;;;;;;;;;;23.89;41.63;97076.48;625937;225;67975;-66
2023/04/10 02:46:37;;;;;;;;;;;;;;;23.88;42.74;97074.89;625916;226;64476;-66
2023/04/10 02:49:07;;;;;;;;;;;;;;;23.89;42.45;97076.48;626870;226;50980;-64
2023/04/10 02:51:35;;;;;;;;;;;;;;;23.88;44.41;97071.42;627245;226;67144;-63
2023/04/10 02:54:03;;;;;;;;;;;;;;;23.86;41.35;97077.06;626503;225;64964;-63
2023/04/10 02:56:33;;;;;;;;;;;;;;;23.86;41.67;97073.59;617628;226;65724;-63
2023/04/10 02:59:01;;;;;;;;;;;;;;;23.86;41.31;97076.27;627700;226;64835;-63
2023/04/10 03:01:29;;;;;;;;;;;;;;;23.85;41.57;97077.37;627390;225;66863;-67
2023/04/10 03:03:59;;;;;;;;;;;;;;;23.85;42.50;97074.69;626504;225;65107;-67
2023/04/10 03:06:28;;;;;;;;;;;;;;;23.84;44.33;97075.75;627468;225;44378;-67
2023/04/10 03:08:56;;;;;;;;;;;;;;;23.83;41.04;97077.64;626972;225;67566;-67
2023/04/10 03:11:24;;;;;;;;;;;;;;;23.82;41.45;97081.42;626163;226;63584;-67
2023/04/10 03:13:52;;;;;;;;;;;;;;;23.82;42.67;97073.38;625908;226;67206;-67
2023/04/10 03:16:19;;;;;;;;;;;;;;;23.81;42.58;97079.80;625754;226;66897;-67
2023/04/10 03:18:47;;;;;;;;;;;;;;;23.80;41.84;97083.59;625829;226;62434;-67
2023/04/10 03:21:15;;;;;;;;;;;;;;;23.80;42.51;97082.80;625838;226;67317;-67
2023/04/10 03:23:43;;;;;;;;;;;;;;;23.80;41.54;97085.48;625848;226;66703;-67
2023/04/10 03:26:10;;;;;;;;;;;;;;;23.79;41.82;97089.23;625863;226;62545;-67
2023/04/10 03:28:38;;;;;;;;;;;;;;;23.78;41.79;97088.44;627424;225;67719;-67
2023/04/10 03:31:06;;;;;;;;;;;;;;;23.78;41.96;97090.33;626403;225;67141;-67
2023/04/10 03:33:35;;;;;;;;;;;;;;;23.77;43.59;97086.84;626151;225;65746;-67
2023/04/10 03:36:03;;;;;;;;;;;;;;;23.77;41.34;97088.73;626338;226;67338;-67
2023/04/10 03:38:32;;;;;;;;;;;;;;;23.77;44.21;97088.73;625857;226;67785;-67
2023/04/10 03:41:00;;;;;;;;;;;;;;;23.76;42.02;97089.80;625869;226;63011;-63
2023/04/10 03:43:32;;;;;;;;;;;;;;;23.75;42.70;97085.53;626194;226;45355;-64
2023/04/10 03:46:00;;;;;;;;;;;;;;;23.74;42.44;97086.63;626987;225;64429;-64
2023/04/10 03:48:29;;;;;;;;;;;;;;;23.74;42.62;97087.42;626999;225;64876;-64
2023/04/10 03:50:56;;;;;;;;;;;;;;;23.72;41.98;97092.27;626296;226;66719;-64
2023/04/10 03:53:25;;;;;;;;;;;;;;;23.73;42.35;97087.70;625883;226;66603;-64
2023/04/10 03:55:53;;;;;;;;;;;;;;;23.72;42.36;97091.48;625777;226;65127;-64
2023/04/10 03:58:22;;;;;;;;;;;;;;;23.70;44.46;97089.83;627315;225;67430;-64
2023/04/10 04:00:50;;;;;;;;;;;;;;;23.70;42.08;97097.09;626441;226;68183;-64
2023/04/10 04:03:19;;;;;;;;;;;;;;;23.67;42.06;97093.09;626593;226;43016;-64
2023/04/10 04:05:58;;;;;;;;;;;;;;;23.68;44.04;97096.56;627207;226;47962;-64
2023/04/10 04:08:30;;;;;;;;;;;;;;;23.67;42.20;97095.77;623094;225;43789;-63
2023/04/10 04:10:59;;;;;;;;;;;;;;;23.67;42.16;97090.41;617425;226;46405;-63
2023/04/10 04:13:36;;;;;;;;;;;;;;;23.65;41.08;97092.59;626394;226;48206;-64
2023/04/10 04:16:06;;;;;;;;;;;;;;;23.65;42.85;97091.78;626355;225;48694;-64
2023/04/10 04:18:36;;;;;;;;;;;;;;;23.64;41.81;97092.88;618696;226;42165;-63
2023/04/10 04:21:11;;;;;;;;;;;;;;;23.63;42.16;97097.45;620247;225;48229;-64
2023/04/10 04:23:40;;;;;;;;;;;;;;;23.62;42.33;97093.14;626413;225;44123;-64
2023/04/10 04:26:12;;;;;;;;;;;;;;;23.62;44.57;97097.72;626727;225;47727;-65
2023/04/10 04:28:47;;;;;;;;;;;;;;;23.63;43.25;97094.77;626850;225;44358;-62
2023/04/10 04:31:20;;;;;;;;;;;;;;;23.60;42.45;97098.02;626477;225;49123;-64
2023/04/10 04:33:49;;;;;;;;;;;;;;;23.60;41.70;97092.66;625353;226;45913;-64
2023/04/10 04:36:19;;;;;;;;;;;;;;;23.59;42.12;97096.41;615319;226;45832;-64
2023/04/10 04:39:06;;;;;;;;;;;;;;;23.59;41.93;97099.09;626609;225;44225;-68
2023/04/10 04:41:45;;;;;;;;;;;;;;;23.58;43.25;97102.86;622492;225;47338;-68
2023/04/10 04:44:20;;;;;;;;;;;;;;;23.58;42.26;97100.19;626437;225;45402;-68
2023/04/10 04:47:01;;;;;;;;;;;;;;;23.58;41.65;97102.86;626884;225;46625;-68
2023/04/10 04:49:31;;;;;;;;;;;;;;;23.58;42.63;97105.55;627370;226;45928;-68
2023/04/10 04:52:08;;;;;;;;;;;;;;;23.58;42.69;97108.23;625579;226;49304;-68
2023/04/10 04:54:37;;;;;;;;;;;;;;;23.58;42.43;97113.59;626231;225;46817;-68
2023/04/10 04:57:09;;;;;;;;;;;;;;;23.59;43.12;97109.02;625859;226;46272;-68
2023/04/10 04:59:45;;;;;;;;;;;;;;;23.59;42.91;97099.09;626550;225;44732;-67
2023/04/10 05:02:17;;;;;;;;;;;;;;;23.60;43.01;97105.25;623528;225;46807;-68
2023/04/10 05:04:49;;;;;;;;;;;;;;;23.59;40.76;97107.13;625913;226;43854;-68
2023/04/10 05:07:28;;;;;;;;;;;;;;;23.60;42.27;97106.07;625699;226;45497;-68
2023/04/10 05:09:57;;;;;;;;;;;;;;;23.60;41.15;97108.75;626644;225;44298;-68
2023/04/10 05:12:43;;;;;;;;;;;;;;;23.61;42.43;97112.23;627378;226;37878;-68
2023/04/10 05:15:18;;;;;;;;;;;;;;;23.62;41.67;97109.24;621679;225;50218;-68
2023/04/10 05:17:54;;;;;;;;;;;;;;;23.62;40.43;97114.61;625712;225;49574;-68
2023/04/10 05:20:35;;;;;;;;;;;;;;;23.64;41.66;97107.08;625918;226;47190;-68
2023/04/10 05:23:16;;;;;;;;;;;;;;;23.65;43.04;97114.06;625714;226;49330;-68
2023/04/10 05:25:52;;;;;;;;;;;;;;;23.65;41.88;97124.80;625692;226;46611;-68
2023/04/10 05:28:22;;;;;;;;;;;;;;;23.66;43.21;97117.54;625960;226;43496;-67
2023/04/10 05:30:57;;;;;;;;;;;;;;;23.66;43.67;97118.33;625804;226;46040;-68
2023/04/10 05:33:42;;;;;;;;;;;;;;;23.67;44.77;97122.60;626010;226;38788;-67
2023/04/10 05:36:27;;;;;;;;;;;;;;;23.67;44.92;97122.60;627410;225;47093;-67
2023/04/10 05:38:56;;;;;;;;;;;;;;;23.69;44.81;97123.12;626464;225;45615;-67
2023/04/10 05:41:25;;;;;;;;;;;;;;;23.71;45.67;97122.89;614334;229;49147;-67
2023/04/10 05:44:01;;;;;;;;;;;;;;;23.71;43.75;97120.20;619435;224;46099;-68
2023/04/10 05:46:31;;;;;;;;;;;;;;;23.72;44.73;97123.67;626489;225;44492;-67
2023/04/10 05:49:03;;;;;;;;;;;;;;;23.74;45.06;97127.67;618846;225;47319;-67
2023/04/10 05:51:33;;;;;;;;;;;;;;;23.76;46.46;97130.05;626076;225;46282;-67
2023/04/10 05:54:14;;;;;;;;;;;;;;;23.77;44.78;97137.04;614754;226;46867;-67
2023/04/10 05:56:50;;;;;;;;;;;;;;;23.78;46.37;97126.00;624292;225;46464;-67
2023/04/10 05:59:25;;;;;;;;;;;;;;;23.80;43.78;97123.05;621148;225;46510;-66
2023/04/10 06:01:57;;;;;;;;;;;;;;;23.82;46.60;97134.30;627330;226;44117;-66
2023/04/10 06:04:25;;;;;;;;;;;;;;;23.83;42.75;97127.84;626346;226;66995;-67
2023/04/10 06:06:54;;;;;;;;;;;;;;;23.84;43.47;97134.79;615452;227;67284;-67
2023/04/10 06:09:21;;;;;;;;;;;;;;;23.85;43.48;97129.15;624393;226;64650;-66
2023/04/10 06:11:49;;;;;;;;;;;;;;;23.88;39.42;97133.15;626534;225;66844;-67
2023/04/10 06:14:19;;;;;;;;;;;;;;;23.92;39.43;97131.47;626362;225;65828;-64
2023/04/10 06:16:47;;;;;;;;;;;;;;;23.95;37.23;97135.47;626792;226;64724;-66
2023/04/10 06:19:15;;;;;;;;;;;;;;;23.98;40.68;97121.47;627257;225;67473;-67
2023/04/10 06:21:42;;;;;;;;;;;;;;;24.01;39.08;97137.00;625758;225;64869;-67
2023/04/10 06:24:13;;;;;;;;;;;;;;;24.03;37.35;97132.95;621015;226;65465;-66
2023/04/10 06:26:40;;;;;;;;;;;;;;;24.07;38.64;97136.66;614905;229;68119;-65
2023/04/10 06:29:09;;;;;;;;;;;;;;;24.09;40.86;97129.13;607274;230;62587;-65
2023/04/10 06:31:37;;;;;;;;;;;;;;;24.12;37.76;97135.81;611269;231;67536;-60
2023/04/10 06:34:05;;;;;;;;;;;;;;;24.16;41.36;97139.50;614974;230;66860;-60
2023/04/10 06:36:34;;;;;;;;;;;;;;;24.18;38.45;97140.02;612087;230;46289;-60
2023/04/10 06:39:05;;;;;;;;;;;;;;;24.21;39.20;97135.97;614685;229;44610;-60
2023/04/10 06:41:32;;;;;;;;;;;;;;;24.25;38.47;97142.34;611388;230;67083;-60
2023/04/10 06:44:05;;;;;;;;;;;;;;;24.27;37.08;97140.17;612299;230;47594;-69
2023/04/10 06:46:32;;;;;;;;;;;;;;;24.30;38.22;97132.33;612934;230;64951;-69
2023/04/10 06:49:00;;;;;;;;;;;;;;;24.33;38.21;97133.63;615697;229;64889;-68
2023/04/10 06:51:27;;;;;;;;;;;;;;;24.35;38.87;97126.09;615165;229;62923;-66
2023/04/10 06:53:55;;;;;;;;;;;;;;;24.37;39.03;97134.67;614564;230;67188;-68
2023/04/10 06:56:22;;;;;;;;;;;;;;;24.40;40.52;97141.35;612518;231;67025;-66
2023/04/10 06:58:50;;;;;;;;;;;;;;;24.41;39.01;97135.67;612536;231;65014;-65
2023/04/10 07:01:17;;;;;;;;;;;;;;;24.43;37.27;97143.45;614294;229;67321;-68
2023/04/10 07:03:45;;;;;;;;;;;;;;;24.45;38.21;97141.31;614790;229;65027;-66
2023/04/10 07:06:13;;;;;;;;;;;;;;;24.46;37.18;97138.31;612623;231;65123;-63
2023/04/10 07:08:41;;;;;;;;;;;;;;;24.48;39.27;97136.15;616205;229;72669;-66
2023/04/10 07:11:09;;;;;;;;;;;;;;;24.50;39.87;97133.16;615928;229;64806;-66
2023/04/10 07:13:38;;;;;;;;;;;;;;;24.51;38.14;97135.56;615608;229;65878;-66
2023/04/10 07:16:09;;;;;;;;;;;;;;;24.53;39.72;97138.77;616061;229;64988;-67
2023/04/10 07:18:37;;;;;;;;;;;;;;;24.54;37.06;97136.88;617384;229;67402;-66
2023/04/10 07:21:10;;;;;;;;;;;;;;;24.56;38.08;97140.87;614165;229;65055;-66
2023/04/10 07:23:38;;;;;;;;;;;;;;;24.58;40.08;97140.56;612934;231;67181;-66
2023/04/10 07:26:06;;;;;;;;;;;;;;;24.59;37.48;97142.17;615378;229;66859;-68
2023/04/10 07:28:33;;;;;;;;;;;;;;;24.61;37.20;97149.93;611695;230;65141;-68
2023/04/10 07:31:01;;;;;;;;;;;;;;;24.62;40.07;97138.11;611494;230;67090;-68
2023/04/10 07:33:28;;;;;;;;;;;;;;;24.62;38.04;97141.59;613795;230;67075;-66
2023/04/10 07:35:56;;;;;;;;;;;;;;;24.65;37.10;97142.90;616229;230;65083;-66
2023/04/10 07:38:23;;;;;;;;;;;;;;;24.65;39.75;97141.00;612073;230;66866;-67
2023/04/10 07:40:58;;;;;;;;;;;;;;;24.67;38.40;97148.79;611467;230;64946;-66
2023/04/10 07:43:25;;;;;;;;;;;;;;;24.67;40.21;97138.83;611483;230;65099;-66
2023/04/10 07:45:53;;;;;;;;;;;;;;;24.69;38.36;97135.84;614652;230;67480;-65
2023/04/10 07:48:20;;;;;;;;;;;;;;;24.70;39.54;97137.45;612214;230;67214;-63
2023/04/10 07:50:48;;;;;;;;;;;;;;;24.72;40.14;97140.66;615194;230;65081;-61
2023/04/10 07:53:15;;;;;;;;;;;;;;;24.72;38.77;97135.28;611488;230;64862;-61
2023/04/10 07:55:47;;;;;;;;;;;;;;;24.74;40.15;97138.45;615046;230;64954;-61
2023/04/10 07:58:15;;;;;;;;;;;;;;;24.74;41.54;97133.08;612862;229;66107;-61
2023/04/10 08:00:43;;;;;;;;;;;;;;;24.75;38.85;97137.38;608724;232;67251;-61
2023/04/10 08:03:12;;;;;;;;;;;;;;;24.76;37.58;97136.27;611581;230;67239;-61
2023/04/10 08:05:39;;;;;;;;;;;;;;;24.77;37.44;97129.80;611492;230;62942;-62
2023/04/10 08:08:07;;;;;;;;;;;;;;;24.78;38.63;97132.20;611399;230;67307;-62
2023/04/10 08:10:38;;;;;;;;;;;;;;;24.80;37.29;97123.86;611390;230;66914;-59
2023/04/10 08:13:05;;;;;;;;;;;;;;;24.81;38.39;97128.14;611441;230;65241;-61
2023/04/10 08:15:33;;;;;;;;;;;;;;;24.82;38.93;97127.03;611471;230;67428;-61
2023/04/10 08:18:00;;;;;;;;;;;;;;;24.84;36.78;97122.17;611540;230;67045;-63
2023/04/10 08:20:28;;;;;;;;;;;;;;;24.84;37.80;97122.17;615708;230;62931;-62
2023/04/10 08:22:55;;;;;;;;;;;;;;;24.84;39.97;97121.38;614676;230;64933;-61
2023/04/10 08:25:23;;;;;;;;;;;;;;;24.83;37.92;97120.59;613814;230;64659;-62
2023/04/10 08:27:50;;;;;;;;;;;;;;;24.85;37.19;97123.75;613067;230;63002;-61
2023/04/10 08:30:18;;;;;;;;;;;;;;;24.87;41.38;97116.20;611388;230;67439;-60
2023/04/10 08:32:45;;;;;;;;;;;;;;;24.89;37.07;97124.78;614317;229;65383;-66
2023/04/10 08:35:13;;;;;;;;;;;;;;;24.90;37.96;97112.13;616611;230;65049;-67
2023/04/10 08:37:42;;;;;;;;;;;;;;;24.91;38.16;97111.03;613841;228;67175;-64
2023/04/10 08:40:09;;;;;;;;;;;;;;;24.91;37.72;97103.78;611552;230;64942;-65
2023/04/10 08:42:37;;;;;;;;;;;;;;;24.92;37.68;97102.69;616204;229;65092;-65
2023/04/10 08:45:05;;;;;;;;;;;;;;;24.93;38.10;97101.58;615680;229;67237;-66
2023/04/10 08:47:34;;;;;;;;;;;;;;;24.93;37.38;97096.20;611463;230;67102;-65
2023/04/10 08:50:03;;;;;;;;;;;;;;;24.95;37.04;97093.23;611528;230;65108;-65
2023/04/10 08:52:33;;;;;;;;;;;;;;;24.95;37.77;97090.55;611963;230;64244;-67
2023/04/10 08:55:02;;;;;;;;;;;;;;;24.98;39.77;97092.64;615705;229;65293;-65
2023/04/10 08:57:29;;;;;;;;;;;;;;;24.96;37.87;97087.58;613759;230;62941;-66
2023/04/10 08:59:58;;;;;;;;;;;;;;;24.98;38.48;97084.58;612920;230;67481;-65
2023/04/10 09:02:25;;;;;;;;;;;;;;;24.97;37.25;97082.99;611703;230;68039;-65
2023/04/10 09:04:55;;;;;;;;;;;;;;;24.99;37.24;97078.09;616232;229;46731;-66
2023/04/10 09:07:23;;;;;;;;;;;;;;;25.01;40.17;97071.33;615075;230;67344;-64
2023/04/10 09:09:50;;;;;;;;;;;;;;;25.02;38.83;97069.47;615513;229;67009;-66
2023/04/10 09:12:19;;;;;;;;;;;;;;;25.01;37.84;97063.27;616195;230;44999;-63
2023/04/10 09:14:52;;;;;;;;;;;;;;;25.03;37.62;97058.40;616230;228;67218;-64
2023/04/10 09:17:19;;;;;;;;;;;;;;;25.03;38.63;97052.23;613480;229;66952;-65
2023/04/10 09:19:53;;;;;;;;;;;;;;;25.04;39.77;97051.13;613161;230;64881;-66
2023/04/10 09:22:31;;;;;;;;;;;;;;;25.05;40.23;97057.32;611635;230;67274;-66
2023/04/10 09:24:59;;;;;;;;;;;;;;;25.06;40.54;97061.59;617025;229;67223;-65
2023/04/10 09:27:30;;;;;;;;;;;;;;;25.02;39.13;97053.33;613916;230;64980;-65
2023/04/10 09:30:00;;;;;;;;;;;;;;;25.05;40.20;97052.73;611494;230;67160;-65
2023/04/10 09:32:45;;;;;;;;;;;;;;;25.06;38.93;97048.15;615293;230;65014;-64
2023/04/10 09:35:13;;;;;;;;;;;;;;;25.05;38.14;97049.25;613237;230;62890;-65
2023/04/10 09:37:44;;;;;;;;;;;;;;;25.05;40.17;97041.19;616077;229;65017;-65
2023/04/10 09:40:22;;;;;;;;;;;;;;;25.05;40.07;97055.42;614293;230;66904;-66
2023/04/10 09:42:50;;;;;;;;;;;;;;;25.05;40.72;97046.56;613528;229;65130;-65
2023/04/10 09:45:21;;;;;;;;;;;;;;;25.06;40.16;97042.77;613422;230;67229;-65
2023/04/10 09:48:02;;;;;;;;;;;;;;;25.06;38.08;97029.33;613108;230;67455;-65
2023/04/10 09:50:34;;;;;;;;;;;;;;;25.07;39.13;97029.02;612513;228;65182;-65
2023/04/10 09:53:02;;;;;;;;;;;;;;;25.08;40.18;97029.84;618307;228;67202;-67
2023/04/10 09:55:30;;;;;;;;;;;;;;;25.08;39.78;97014.50;618350;228;65040;-66
2023/04/10 09:57:58;;;;;;;;;;;;;;;25.08;39.37;97021.77;619221;226;65119;-66
2023/04/10 10:00:26;;;;;;;;;;;;;;;25.09;39.64;97021.45;621307;228;67216;-64
2023/04/10 10:02:55;;;;;;;;;;;;;;;25.10;39.57;97014.18;619732;229;66858;-66
2023/04/10 10:05:26;;;;;;;;;;;;;;;25.11;36.90;97013.90;619632;229;65057;-67
2023/04/10 10:07:52;;;;;;;;;;;;;;;25.12;39.80;97014.69;620911;228;64398;-67
2023/04/10 10:10:20;;;;;;;;;;;;;;;25.12;37.32;97007.41;620075;228;66830;-64
2023/04/10 10:12:49;;;;;;;;;;;;;;;25.14;36.67;97007.13;619662;229;63072;-65
2023/04/10 10:15:18;;;;;;;;;;;;;;;25.13;37.13;97000.96;619578;228;67163;-66
2023/04/10 10:17:47;;;;;;;;;;;;;;;25.16;36.79;97004.98;619352;228;64629;-65
2023/04/10 10:20:16;;;;;;;;;;;;;;;25.17;41.44;97006.56;618325;229;65041;-65
2023/04/10 10:22:45;;;;;;;;;;;;;;;25.17;38.50;97001.18;621461;228;66752;-66
2023/04/10 10:25:13;;;;;;;;;;;;;;;25.17;37.33;96985.05;619539;229;66782;-68
2023/04/10 10:27:41;;;;;;;;;;;;;;;25.17;38.81;96990.42;619056;228;62674;-66
2023/04/10 10:30:11;;;;;;;;;;;;;;;25.21;38.39;96996.81;618632;229;67225;-66
2023/04/10 10:32:39;;;;;;;;;;;;;;;25.24;36.47;96990.83;618561;229;65040;-66
2023/04/10 10:35:07;;;;;;;;;;;;;;;25.24;38.58;97004.28;618643;229;62991;-66
2023/04/10 10:37:35;;;;;;;;;;;;;;;25.25;36.53;97008.55;618577;229;67257;-66
2023/04/10 10:40:07;;;;;;;;;;;;;;;25.27;38.04;97016.34;618612;229;64877;-64
2023/04/10 10:42:42;;;;;;;;;;;;;;;25.28;38.89;97017.92;618518;229;63050;-64
2023/04/10 10:45:19;;;;;;;;;;;;;;;25.31;41.33;97017.32;619054;227;67212;-66
2023/04/10 10:47:48;;;;;;;;;;;;;;;25.31;38.79;97010.04;618138;227;66989;-66
2023/04/10 10:50:16;;;;;;;;;;;;;;;25.31;39.58;97007.35;618468;227;65782;-65
2023/04/10 10:52:56;;;;;;;;;;;;;;;25.33;36.32;97001.69;619261;228;67015;-66
2023/04/10 10:55:24;;;;;;;;;;;;;;;25.34;37.01;97001.37;617369;228;64814;-65
2023/04/10 10:57:53;;;;;;;;;;;;;;;25.36;38.13;96995.70;618812;229;65107;-65
2023/04/10 11:00:21;;;;;;;;;;;;;;;25.36;38.38;96993.80;618739;229;67181;-65
2023/04/10 11:02:56;;;;;;;;;;;;;;;25.38;36.30;96996.20;620015;228;67295;-66
2023/04/10 11:05:34;;;;;;;;;;;;;;;25.40;37.26;96986.74;619968;228;63034;-67
2023/04/10 11:08:03;;;;;;;;;;;;;;;25.42;36.79;96978.36;610394;231;64901;-66
2023/04/10 11:10:51;;;;;;;;;;;;;;;25.42;37.29;96975.66;618776;229;46053;-60
2023/04/10 11:13:21;;;;;;;;;;;;;;;25.43;38.79;96978.06;619242;229;65281;-60
2023/04/10 11:15:50;;;;;;;;;;;;;;;25.44;38.21;96971.58;619472;229;67306;-60
2023/04/10 11:18:19;;;;;;;;;;;;;;;25.44;37.60;96963.50;619844;228;66927;-60
2023/04/10 11:21:06;;;;;;;;;;;;;;;25.45;37.72;96957.05;619433;229;66045;-61
2023/04/10 11:23:34;;;;;;;;;;;;;;;25.45;37.50;96959.73;620714;228;66897;-59
2023/04/10 11:26:01;;;;;;;;;;;;;;;25.47;37.68;96952.14;619910;228;64960;-60
2023/04/10 11:28:33;;;;;;;;;;;;;;;25.50;38.35;96949.95;619663;228;62735;-61
2023/04/10 11:31:21;;;;;;;;;;;;;;;25.50;35.97;96956.12;619402;228;65253;-59
2023/04/10 11:33:50;;;;;;;;;;;;;;;25.52;38.69;96961.22;618489;229;67066;-59
2023/04/10 11:36:18;;;;;;;;;;;;;;;25.52;36.81;96958.53;620495;228;65043;-59
2023/04/10 11:39:07;;;;;;;;;;;;;;;25.55;37.98;96960.61;619201;228;67286;-60
2023/04/10 11:41:36;;;;;;;;;;;;;;;25.56;36.47;96964.88;620727;228;65051;-61
2023/04/10 11:44:05;;;;;;;;;;;;;;;25.57;35.94;96958.42;619583;229;63226;-59
2023/04/10 11:46:38;;;;;;;;;;;;;;;25.57;37.33;96956.52;619321;229;67242;-60
2023/04/10 11:49:06;;;;;;;;;;;;;;;25.58;38.10;96951.92;619693;228;67048;-59
2023/04/10 11:51:34;;;;;;;;;;;;;;;25.58;37.80;96949.23;621081;228;62985;-59
2023/04/10 11:54:11;;;;;;;;;;;;;;;25.59;36.75;96958.89;620401;228;65019;-60
2023/04/10 11:56:40;;;;;;;;;;;;;;;25.60;37.46;96960.50;619370;228;66983;-59
2023/04/10 11:59:09;;;;;;;;;;;;;;;25.61;38.06;96954.02;620507;228;65083;-60
2023/04/10 12:01:37;;;;;;;;;;;;;;;25.63;40.22;96951.82;619734;228;67156;-59
2023/04/10 12:04:07;;;;;;;;;;;;;;;25.62;38.28;96948.34;619440;228;67060;-60
2023/04/10 12:06:35;;;;;;;;;;;;;;;25.63;37.15;96949.92;618369;228;64409;-59
2023/04/10 12:09:04;;;;;;;;;;;;;;;25.64;39.17;96958.78;619425;229;64847;-60
2023/04/10 12:11:31;;;;;;;;;;;;;;;25.64;36.36;96956.09;619140;228;64810;-61
2023/04/10 12:13:59;;;;;;;;;;;;;;;25.64;41.28;96956.89;619801;229;62752;-60
2023/04/10 12:16:27;;;;;;;;;;;;;;;25.66;37.00;96967.36;619724;229;64934;-61
2023/04/10 12:18:56;;;;;;;;;;;;;;;25.66;38.04;96972.74;618931;228;49691;-62
2023/04/10 12:21:28;;;;;;;;;;;;;;;25.65;40.36;96973.85;619739;228;46593;-61
2023/04/10 12:23:59;;;;;;;;;;;;;;;25.65;39.65;96971.16;619622;229;67137;-60
2023/04/10 12:26:26;;;;;;;;;;;;;;;25.65;37.35;96981.92;620934;228;67167;-61
2023/04/10 12:28:56;;;;;;;;;;;;;;;25.63;39.95;96986.81;619912;229;65037;-60
2023/04/10 12:31:31;;;;;;;;;;;;;;;25.64;39.69;96978.41;619386;229;67253;-61
2023/04/10 12:34:01;;;;;;;;;;;;;;;25.63;37.78;96978.73;619567;228;67131;-60
2023/04/10 12:36:32;;;;;;;;;;;;;;;25.61;39.89;96979.02;619534;228;62743;-61
2023/04/10 12:39:05;;;;;;;;;;;;;;;25.61;40.24;96979.02;619436;228;67381;-60
2023/04/10 12:41:35;;;;;;;;;;;;;;;25.62;40.55;96979.84;619762;229;64997;-60
2023/04/10 12:44:12;;;;;;;;;;;;;;;25.63;38.95;96973.35;618903;229;64985;-60
2023/04/10 12:46:41;;;;;;;;;;;;;;;25.62;37.66;96977.16;618595;228;65320;-60
2023/04/10 12:49:12;;;;;;;;;;;;;;;25.60;41.17;96982.82;620556;228;67170;-60
2023/04/10 12:51:49;;;;;;;;;;;;;;;25.59;40.08;96975.03;619898;228;65057;-60
2023/04/10 12:54:27;;;;;;;;;;;;;;;25.58;41.15;96976.94;619594;228;64917;-59
2023/04/10 12:56:54;;;;;;;;;;;;;;;25.58;41.22;96976.94;619661;229;65026;-61
2023/04/10 12:59:22;;;;;;;;;;;;;;;25.56;40.96;96968.36;619645;228;65062;-60
2023/04/10 13:01:49;;;;;;;;;;;;;;;25.58;37.73;96974.25;619331;229;64924;-59